sensor_id;sensor_type;location;lat;lon;timestamp;temperature;humidity
22562;DHT22;11447;50.562;8.504;2022-07-23T00:00:30;21.00;95.20
22562;DHT22;11447;50.562;8.504;2022-07-23T00:03:05;21.00;95.40
22562;DHT22;11447;50.562;8.504;2022-07-23T00:05:35;21.00;96.00
22562;DHT22;11447;50.562;8.504;2022-07-23T00:08:05;21.00;96.50
22562;DHT22;11447;50.562;8.504;2022-07-23T00:10:37;21.00;96.70
22562;DHT22;11447;50.562;8.504;2022-07-23T00:13:06;20.90;96.90
22562;DHT22;11447;50.562;8.504;2022-07-23T00:15:33;21.00;97.50
22562;DHT22;11447;50.562;8.504;2022-07-23T00:17:59;21.00;97.70
22562;DHT22;11447;50.562;8.504;2022-07-23T00:20:28;21.00;97.70
22562;DHT22;11447;50.562;8.504;2022-07-23T00:22:57;20.90;98.00
22562;DHT22;11447;50.562;8.504;2022-07-23T00:25:24;20.90;98.30
22562;DHT22;11447;50.562;8.504;2022-07-23T00:27:57;20.90;98.50
22562;DHT22;11447;50.562;8.504;2022-07-23T00:30:30;20.90;98.60
22562;DHT22;11447;50.562;8.504;2022-07-23T00:33:07;21.00;98.60
22562;DHT22;11447;50.562;8.504;2022-07-23T00:35:36;20.90;98.90
22562;DHT22;11447;50.562;8.504;2022-07-23T00:38:04;20.70;98.90
22562;DHT22;11447;50.562;8.504;2022-07-23T00:40:33;20.40;99.60
22562;DHT22;11447;50.562;8.504;2022-07-23T00:43:01;20.30;99.90
22562;DHT22;11447;50.562;8.504;2022-07-23T00:45:28;20.20;99.90
22562;DHT22;11447;50.562;8.504;2022-07-23T00:47:58;20.20;99.90
22562;DHT22;11447;50.562;8.504;2022-07-23T00:50:31;20.10;99.90
22562;DHT22;11447;50.562;8.504;2022-07-23T00:53:00;20.10;99.90
22562;DHT22;11447;50.562;8.504;2022-07-23T00:55:29;20.10;99.90
22562;DHT22;11447;50.562;8.504;2022-07-23T00:57:58;20.10;99.90
22562;DHT22;11447;50.562;8.504;2022-07-23T01:00:25;20.10;99.90
22562;DHT22;11447;50.562;8.504;2022-07-23T01:02:52;20.20;99.90
22562;DHT22;11447;50.562;8.504;2022-07-23T01:05:19;20.30;99.90
22562;DHT22;11447;50.562;8.504;2022-07-23T01:07:49;20.30;99.90
22562;DHT22;11447;50.562;8.504;2022-07-23T01:10:24;20.30;99.90
22562;DHT22;11447;50.562;8.504;2022-07-23T01:13:07;20.30;99.90
22562;DHT22;11447;50.562;8.504;2022-07-23T01:15:38;20.40;99.90
22562;DHT22;11447;50.562;8.504;2022-07-23T01:18:07;20.40;99.90
22562;DHT22;11447;50.562;8.504;2022-07-23T01:20:34;20.40;99.90
22562;DHT22;11447;50.562;8.504;2022-07-23T01:23:01;20.40;99.90
22562;DHT22;11447;50.562;8.504;2022-07-23T01:25:30;20.20;99.90
22562;DHT22;11447;50.562;8.504;2022-07-23T01:27:57;20.10;99.90
22562;DHT22;11447;50.562;8.504;2022-07-23T01:30:24;20.10;99.90
22562;DHT22;11447;50.562;8.504;2022-07-23T01:32:51;20.10;99.90
22562;DHT22;11447;50.562;8.504;2022-07-23T01:35:20;20.00;99.90
22562;DHT22;11447;50.562;8.504;2022-07-23T01:37:49;19.90;99.90
22562;DHT22;11447;50.562;8.504;2022-07-23T01:40:15;20.00;99.90
22562;DHT22;11447;50.562;8.504;2022-07-23T01:42:46;20.10;99.90
22562;DHT22;11447;50.562;8.504;2022-07-23T01:45:15;20.20;99.90
22562;DHT22;11447;50.562;8.504;2022-07-23T01:47:47;20.30;99.90
22562;DHT22;11447;50.562;8.504;2022-07-23T01:50:14;20.20;99.90
22562;DHT22;11447;50.562;8.504;2022-07-23T01:52:41;20.20;99.90
22562;DHT22;11447;50.562;8.504;2022-07-23T01:55:08;20.20;99.90
22562;DHT22;11447;50.562;8.504;2022-07-23T01:57:37;20.20;99.90
22562;DHT22;11447;50.562;8.504;2022-07-23T02:00:04;20.20;99.90
22562;DHT22;11447;50.562;8.504;2022-07-23T02:02:33;20.20;99.90
22562;DHT22;11447;50.562;8.504;2022-07-23T02:05:05;20.20;99.90
22562;DHT22;11447;50.562;8.504;2022-07-23T02:07:32;20.30;99.90
22562;DHT22;11447;50.562;8.504;2022-07-23T02:10:03;20.30;99.90
22562;DHT22;11447;50.562;8.504;2022-07-23T02:12:30;20.30;99.90
22562;DHT22;11447;50.562;8.504;2022-07-23T02:14:59;20.30;99.90
22562;DHT22;11447;50.562;8.504;2022-07-23T02:17:28;20.30;99.90
22562;DHT22;11447;50.562;8.504;2022-07-23T02:19:57;20.30;99.90
22562;DHT22;11447;50.562;8.504;2022-07-23T02:22:27;20.30;99.90
22562;DHT22;11447;50.562;8.504;2022-07-23T02:24:53;20.30;99.90
22562;DHT22;11447;50.562;8.504;2022-07-23T02:27:23;20.30;99.90
22562;DHT22;11447;50.562;8.504;2022-07-23T02:29:51;20.20;99.90
22562;DHT22;11447;50.562;8.504;2022-07-23T02:32:20;20.30;99.90
22562;DHT22;11447;50.562;8.504;2022-07-23T02:34:52;20.30;99.90
22562;DHT22;11447;50.562;8.504;2022-07-23T02:37:21;20.30;99.90
22562;DHT22;11447;50.562;8.504;2022-07-23T02:39:52;20.30;99.90
22562;DHT22;11447;50.562;8.504;2022-07-23T02:42:19;20.30;99.90
22562;DHT22;11447;50.562;8.504;2022-07-23T02:44:46;20.30;99.90
22562;DHT22;11447;50.562;8.504;2022-07-23T02:47:15;20.30;99.90
22562;DHT22;11447;50.562;8.504;2022-07-23T02:49:42;20.20;99.90
22562;DHT22;11447;50.562;8.504;2022-07-23T02:52:11;20.20;99.90
22562;DHT22;11447;50.562;8.504;2022-07-23T02:54:38;20.20;99.90
22562;DHT22;11447;50.562;8.504;2022-07-23T02:57:07;20.10;99.90
22562;DHT22;11447;50.562;8.504;2022-07-23T02:59:34;20.10;99.90
22562;DHT22;11447;50.562;8.504;2022-07-23T03:02:00;20.00;99.90
22562;DHT22;11447;50.562;8.504;2022-07-23T03:04:27;20.00;99.90
22562;DHT22;11447;50.562;8.504;2022-07-23T03:06:56;19.90;99.90
22562;DHT22;11447;50.562;8.504;2022-07-23T03:09:25;19.80;99.90
22562;DHT22;11447;50.562;8.504;2022-07-23T03:11:57;19.80;99.90
22562;DHT22;11447;50.562;8.504;2022-07-23T03:14:26;19.80;99.90
22562;DHT22;11447;50.562;8.504;2022-07-23T03:16:54;19.80;99.90
22562;DHT22;11447;50.562;8.504;2022-07-23T03:19:20;19.90;99.90
22562;DHT22;11447;50.562;8.504;2022-07-23T03:21:47;19.90;99.90
22562;DHT22;11447;50.562;8.504;2022-07-23T03:24:14;20.00;99.90
22562;DHT22;11447;50.562;8.504;2022-07-23T03:26:41;19.90;99.90
22562;DHT22;11447;50.562;8.504;2022-07-23T03:29:10;20.00;99.90
22562;DHT22;11447;50.562;8.504;2022-07-23T03:31:39;20.00;99.90
22562;DHT22;11447;50.562;8.504;2022-07-23T03:34:06;20.00;99.90
22562;DHT22;11447;50.562;8.504;2022-07-23T03:36:33;20.00;99.90
22562;DHT22;11447;50.562;8.504;2022-07-23T03:39:00;20.00;99.90
22562;DHT22;11447;50.562;8.504;2022-07-23T03:41:28;20.00;99.90
22562;DHT22;11447;50.562;8.504;2022-07-23T03:43:59;20.00;99.90
22562;DHT22;11447;50.562;8.504;2022-07-23T03:46:26;20.10;99.90
22562;DHT22;11447;50.562;8.504;2022-07-23T03:48:53;20.10;99.90
22562;DHT22;11447;50.562;8.504;2022-07-23T03:51:29;20.10;99.90
22562;DHT22;11447;50.562;8.504;2022-07-23T03:53:58;20.00;99.90
22562;DHT22;11447;50.562;8.504;2022-07-23T03:56:25;20.00;99.90
22562;DHT22;11447;50.562;8.504;2022-07-23T03:58:54;20.00;99.90
22562;DHT22;11447;50.562;8.504;2022-07-23T04:01:23;19.90;99.90
22562;DHT22;11447;50.562;8.504;2022-07-23T04:03:52;19.90;99.90
22562;DHT22;11447;50.562;8.504;2022-07-23T04:06:19;19.90;99.90
22562;DHT22;11447;50.562;8.504;2022-07-23T04:08:48;20.00;99.90
22562;DHT22;11447;50.562;8.504;2022-07-23T04:11:15;20.00;99.90
22562;DHT22;11447;50.562;8.504;2022-07-23T04:13:44;20.00;99.90
22562;DHT22;11447;50.562;8.504;2022-07-23T04:16:13;20.00;99.90
22562;DHT22;11447;50.562;8.504;2022-07-23T04:18:42;20.00;99.90
22562;DHT22;11447;50.562;8.504;2022-07-23T04:21:09;20.00;99.90
22562;DHT22;11447;50.562;8.504;2022-07-23T04:23:38;20.00;99.90
22562;DHT22;11447;50.562;8.504;2022-07-23T04:26:05;20.00;99.90
22562;DHT22;11447;50.562;8.504;2022-07-23T04:28:32;20.00;99.90
22562;DHT22;11447;50.562;8.504;2022-07-23T04:30:59;20.10;99.90
22562;DHT22;11447;50.562;8.504;2022-07-23T04:33:26;20.10;99.90
22562;DHT22;11447;50.562;8.504;2022-07-23T04:35:53;20.00;99.90
22562;DHT22;11447;50.562;8.504;2022-07-23T04:38:19;20.00;99.90
22562;DHT22;11447;50.562;8.504;2022-07-23T04:40:46;20.00;99.90
22562;DHT22;11447;50.562;8.504;2022-07-23T04:43:15;20.10;99.90
22562;DHT22;11447;50.562;8.504;2022-07-23T04:45:44;20.00;99.90
22562;DHT22;11447;50.562;8.504;2022-07-23T04:48:11;20.00;99.90
22562;DHT22;11447;50.562;8.504;2022-07-23T04:50:38;20.10;99.90
22562;DHT22;11447;50.562;8.504;2022-07-23T04:53:07;20.20;99.90
22562;DHT22;11447;50.562;8.504;2022-07-23T04:55:38;20.10;99.90
22562;DHT22;11447;50.562;8.504;2022-07-23T04:58:05;20.00;99.90
22562;DHT22;11447;50.562;8.504;2022-07-23T05:00:31;19.90;99.90
22562;DHT22;11447;50.562;8.504;2022-07-23T05:02:58;19.80;99.90
22562;DHT22;11447;50.562;8.504;2022-07-23T05:05:25;19.80;99.90
22562;DHT22;11447;50.562;8.504;2022-07-23T05:07:56;19.70;99.90
22562;DHT22;11447;50.562;8.504;2022-07-23T05:10:23;19.60;99.90
22562;DHT22;11447;50.562;8.504;2022-07-23T05:12:52;19.60;99.90
22562;DHT22;11447;50.562;8.504;2022-07-23T05:15:19;19.60;99.90
22562;DHT22;11447;50.562;8.504;2022-07-23T05:17:52;19.50;99.90
22562;DHT22;11447;50.562;8.504;2022-07-23T05:20:21;19.50;99.90
22562;DHT22;11447;50.562;8.504;2022-07-23T05:22:50;19.50;99.90
22562;DHT22;11447;50.562;8.504;2022-07-23T05:25:17;19.40;99.90
22562;DHT22;11447;50.562;8.504;2022-07-23T05:27:46;19.50;99.90
22562;DHT22;11447;50.562;8.504;2022-07-23T05:30:15;19.60;99.90
22562;DHT22;11447;50.562;8.504;2022-07-23T05:32:42;19.70;99.90
22562;DHT22;11447;50.562;8.504;2022-07-23T05:35:12;19.70;99.90
22562;DHT22;11447;50.562;8.504;2022-07-23T05:37:41;19.60;99.90
22562;DHT22;11447;50.562;8.504;2022-07-23T05:40:10;19.50;99.90
22562;DHT22;11447;50.562;8.504;2022-07-23T05:42:41;19.60;99.90
22562;DHT22;11447;50.562;8.504;2022-07-23T05:45:10;19.70;99.90
22562;DHT22;11447;50.562;8.504;2022-07-23T05:47:45;19.80;99.90
22562;DHT22;11447;50.562;8.504;2022-07-23T05:50:15;19.90;99.60
22562;DHT22;11447;50.562;8.504;2022-07-23T05:52:43;19.80;99.20
22562;DHT22;11447;50.562;8.504;2022-07-23T05:55:11;19.90;99.70
22562;DHT22;11447;50.562;8.504;2022-07-23T05:57:39;20.00;98.80
22562;DHT22;11447;50.562;8.504;2022-07-23T06:00:07;20.10;98.00
22562;DHT22;11447;50.562;8.504;2022-07-23T06:02:36;20.10;98.10
22562;DHT22;11447;50.562;8.504;2022-07-23T06:05:06;20.20;97.50
22562;DHT22;11447;50.562;8.504;2022-07-23T06:07:35;20.30;97.30
22562;DHT22;11447;50.562;8.504;2022-07-23T06:10:01;20.50;96.80
22562;DHT22;11447;50.562;8.504;2022-07-23T06:12:31;20.60;96.40
22562;DHT22;11447;50.562;8.504;2022-07-23T06:15:00;20.70;95.80
22562;DHT22;11447;50.562;8.504;2022-07-23T06:17:32;20.70;95.00
22562;DHT22;11447;50.562;8.504;2022-07-23T06:20:01;20.80;94.40
22562;DHT22;11447;50.562;8.504;2022-07-23T06:22:28;22.50;92.40
22562;DHT22;11447;50.562;8.504;2022-07-23T06:24:55;23.60;86.80
22562;DHT22;11447;50.562;8.504;2022-07-23T06:27:21;24.60;79.80
22562;DHT22;11447;50.562;8.504;2022-07-23T06:29:52;24.40;78.70
22562;DHT22;11447;50.562;8.504;2022-07-23T06:32:20;24.80;77.90
22562;DHT22;11447;50.562;8.504;2022-07-23T06:34:49;25.80;74.50
22562;DHT22;11447;50.562;8.504;2022-07-23T06:37:21;26.60;70.90
22562;DHT22;11447;50.562;8.504;2022-07-23T06:39:52;26.70;67.20
22562;DHT22;11447;50.562;8.504;2022-07-23T06:42:25;26.10;65.50
22562;DHT22;11447;50.562;8.504;2022-07-23T06:44:52;25.40;66.30
22562;DHT22;11447;50.562;8.504;2022-07-23T06:47:21;25.30;67.90
22562;DHT22;11447;50.562;8.504;2022-07-23T06:49:47;25.30;66.50
22562;DHT22;11447;50.562;8.504;2022-07-23T06:52:17;25.30;67.30
22562;DHT22;11447;50.562;8.504;2022-07-23T06:54:46;25.10;65.00
22562;DHT22;11447;50.562;8.504;2022-07-23T06:57:13;25.10;67.70
22562;DHT22;11447;50.562;8.504;2022-07-23T06:59:39;25.50;66.80
22562;DHT22;11447;50.562;8.504;2022-07-23T07:02:09;25.70;64.40
22562;DHT22;11447;50.562;8.504;2022-07-23T07:04:38;25.80;64.00
22562;DHT22;11447;50.562;8.504;2022-07-23T07:07:05;25.70;63.20
22562;DHT22;11447;50.562;8.504;2022-07-23T07:09:34;25.50;63.10
22562;DHT22;11447;50.562;8.504;2022-07-23T07:12:01;25.20;61.90
22562;DHT22;11447;50.562;8.504;2022-07-23T07:14:28;24.80;64.30
22562;DHT22;11447;50.562;8.504;2022-07-23T07:16:54;24.60;64.70
22562;DHT22;11447;50.562;8.504;2022-07-23T07:19:21;24.50;65.30
22562;DHT22;11447;50.562;8.504;2022-07-23T07:21:48;24.40;65.90
22562;DHT22;11447;50.562;8.504;2022-07-23T07:24:22;24.50;66.00
22562;DHT22;11447;50.562;8.504;2022-07-23T07:26:56;24.50;67.20
22562;DHT22;11447;50.562;8.504;2022-07-23T07:29:26;24.80;66.70
22562;DHT22;11447;50.562;8.504;2022-07-23T07:31:55;24.80;65.90
22562;DHT22;11447;50.562;8.504;2022-07-23T07:34:22;25.00;65.20
22562;DHT22;11447;50.562;8.504;2022-07-23T07:36:49;25.00;65.60
22562;DHT22;11447;50.562;8.504;2022-07-23T07:39:18;25.10;65.10
22562;DHT22;11447;50.562;8.504;2022-07-23T07:41:45;25.30;63.70
22562;DHT22;11447;50.562;8.504;2022-07-23T07:44:13;25.40;63.10
22562;DHT22;11447;50.562;8.504;2022-07-23T07:46:40;25.30;63.20
22562;DHT22;11447;50.562;8.504;2022-07-23T07:49:07;25.40;62.30
22562;DHT22;11447;50.562;8.504;2022-07-23T07:51:41;25.40;62.50
22562;DHT22;11447;50.562;8.504;2022-07-23T07:54:14;25.50;62.50
22562;DHT22;11447;50.562;8.504;2022-07-23T07:56:41;25.70;62.50
22562;DHT22;11447;50.562;8.504;2022-07-23T07:59:10;25.80;61.90
22562;DHT22;11447;50.562;8.504;2022-07-23T08:01:37;26.00;61.90
22562;DHT22;11447;50.562;8.504;2022-07-23T08:04:07;26.20;61.10
22562;DHT22;11447;50.562;8.504;2022-07-23T08:06:34;26.30;60.80
22562;DHT22;11447;50.562;8.504;2022-07-23T08:09:00;26.40;60.40
22562;DHT22;11447;50.562;8.504;2022-07-23T08:11:29;26.60;59.70
22562;DHT22;11447;50.562;8.504;2022-07-23T08:13:56;26.70;59.20
22562;DHT22;11447;50.562;8.504;2022-07-23T08:16:23;26.70;59.00
22562;DHT22;11447;50.562;8.504;2022-07-23T08:18:52;26.90;59.00
22562;DHT22;11447;50.562;8.504;2022-07-23T08:21:22;27.00;58.50
22562;DHT22;11447;50.562;8.504;2022-07-23T08:23:48;27.00;58.10
22562;DHT22;11447;50.562;8.504;2022-07-23T08:26:15;27.10;58.10
22562;DHT22;11447;50.562;8.504;2022-07-23T08:28:42;27.00;57.60
22562;DHT22;11447;50.562;8.504;2022-07-23T08:31:09;26.90;57.40
22562;DHT22;11447;50.562;8.504;2022-07-23T08:33:37;26.80;57.50
22562;DHT22;11447;50.562;8.504;2022-07-23T08:36:04;26.90;57.20
22562;DHT22;11447;50.562;8.504;2022-07-23T08:38:32;27.10;57.50
22562;DHT22;11447;50.562;8.504;2022-07-23T08:41:02;27.20;57.10
22562;DHT22;11447;50.562;8.504;2022-07-23T08:43:32;27.30;56.70
22562;DHT22;11447;50.562;8.504;2022-07-23T08:46:00;27.30;56.40
22562;DHT22;11447;50.562;8.504;2022-07-23T08:48:31;27.40;56.40
22562;DHT22;11447;50.562;8.504;2022-07-23T08:51:00;27.40;56.50
22562;DHT22;11447;50.562;8.504;2022-07-23T08:53:28;27.50;56.60
22562;DHT22;11447;50.562;8.504;2022-07-23T08:55:59;27.60;56.20
22562;DHT22;11447;50.562;8.504;2022-07-23T08:58:29;27.60;56.50
22562;DHT22;11447;50.562;8.504;2022-07-23T09:00:57;27.70;56.30
22562;DHT22;11447;50.562;8.504;2022-07-23T09:03:25;27.60;55.60
22562;DHT22;11447;50.562;8.504;2022-07-23T09:05:55;27.40;56.10
22562;DHT22;11447;50.562;8.504;2022-07-23T09:08:34;27.50;56.60
22562;DHT22;11447;50.562;8.504;2022-07-23T09:11:03;27.40;55.40
22562;DHT22;11447;50.562;8.504;2022-07-23T09:16:06;27.30;55.70
22562;DHT22;11447;50.562;8.504;2022-07-23T09:19:04;27.30;56.30
22562;DHT22;11447;50.562;8.504;2022-07-23T09:29:20;27.70;55.00
22562;DHT22;11447;50.562;8.504;2022-07-23T09:31:48;27.70;54.10
22562;DHT22;11447;50.562;8.504;2022-07-23T09:37:08;27.60;53.20
22562;DHT22;11447;50.562;8.504;2022-07-23T09:39:34;27.60;53.00
22562;DHT22;11447;50.562;8.504;2022-07-23T09:44:51;27.70;54.00
22562;DHT22;11447;50.562;8.504;2022-07-23T09:47:19;27.80;53.40
22562;DHT22;11447;50.562;8.504;2022-07-23T09:50:07;27.70;52.80
22562;DHT22;11447;50.562;8.504;2022-07-23T09:55:09;27.60;53.40
22562;DHT22;11447;50.562;8.504;2022-07-23T09:57:43;27.60;53.60
22562;DHT22;11447;50.562;8.504;2022-07-23T10:00:15;27.60;54.10
22562;DHT22;11447;50.562;8.504;2022-07-23T10:02:42;27.70;54.00
22562;DHT22;11447;50.562;8.504;2022-07-23T10:05:12;27.80;54.60
22562;DHT22;11447;50.562;8.504;2022-07-23T10:07:39;27.80;54.20
22562;DHT22;11447;50.562;8.504;2022-07-23T10:10:10;27.80;54.10
22562;DHT22;11447;50.562;8.504;2022-07-23T10:12:41;27.90;54.20
22562;DHT22;11447;50.562;8.504;2022-07-23T10:15:18;27.90;54.40
22562;DHT22;11447;50.562;8.504;2022-07-23T10:17:48;28.00;54.10
22562;DHT22;11447;50.562;8.504;2022-07-23T10:20:15;28.00;53.80
22562;DHT22;11447;50.562;8.504;2022-07-23T10:23:11;28.00;53.80
22562;DHT22;11447;50.562;8.504;2022-07-23T10:25:46;27.90;54.10
22562;DHT22;11447;50.562;8.504;2022-07-23T10:31:48;27.80;54.30
22562;DHT22;11447;50.562;8.504;2022-07-23T10:34:50;27.90;54.40
22562;DHT22;11447;50.562;8.504;2022-07-23T10:40:19;27.90;54.30
22562;DHT22;11447;50.562;8.504;2022-07-23T10:42:49;27.80;54.40
22562;DHT22;11447;50.562;8.504;2022-07-23T10:45:25;27.80;54.20
22562;DHT22;11447;50.562;8.504;2022-07-23T10:47:55;27.80;54.20
22562;DHT22;11447;50.562;8.504;2022-07-23T10:50:25;27.70;54.20
22562;DHT22;11447;50.562;8.504;2022-07-23T10:58:06;27.50;54.10
22562;DHT22;11447;50.562;8.504;2022-07-23T11:00:34;27.50;54.30
22562;DHT22;11447;50.562;8.504;2022-07-23T11:03:27;27.60;53.60
22562;DHT22;11447;50.562;8.504;2022-07-23T11:05:53;27.60;54.00
22562;DHT22;11447;50.562;8.504;2022-07-23T11:08:21;27.50;54.20
22562;DHT22;11447;50.562;8.504;2022-07-23T11:26:49;27.80;53.80
22562;DHT22;11447;50.562;8.504;2022-07-23T11:34:47;27.80;51.70
22562;DHT22;11447;50.562;8.504;2022-07-23T11:37:33;27.90;51.50
22562;DHT22;11447;50.562;8.504;2022-07-23T11:40:04;27.90;52.00
22562;DHT22;11447;50.562;8.504;2022-07-23T11:42:39;27.90;51.20
22562;DHT22;11447;50.562;8.504;2022-07-23T11:45:08;27.90;51.30
22562;DHT22;11447;50.562;8.504;2022-07-23T11:47:35;27.90;51.10
22562;DHT22;11447;50.562;8.504;2022-07-23T11:50:04;28.00;51.30
22562;DHT22;11447;50.562;8.504;2022-07-23T11:52:31;28.10;50.20
22562;DHT22;11447;50.562;8.504;2022-07-23T11:55:07;28.10;49.60
22562;DHT22;11447;50.562;8.504;2022-07-23T11:57:39;28.20;49.30
22562;DHT22;11447;50.562;8.504;2022-07-23T12:02:40;28.10;48.40
22562;DHT22;11447;50.562;8.504;2022-07-23T12:05:11;28.00;48.00
22562;DHT22;11447;50.562;8.504;2022-07-23T12:07:41;28.00;48.70
22562;DHT22;11447;50.562;8.504;2022-07-23T12:10:17;28.00;49.00
22562;DHT22;11447;50.562;8.504;2022-07-23T12:12:49;28.10;49.90
22562;DHT22;11447;50.562;8.504;2022-07-23T12:15:21;28.30;48.70
22562;DHT22;11447;50.562;8.504;2022-07-23T12:17:50;28.30;47.40
22562;DHT22;11447;50.562;8.504;2022-07-23T12:20:26;28.40;47.00
22562;DHT22;11447;50.562;8.504;2022-07-23T12:22:59;28.40;46.60
22562;DHT22;11447;50.562;8.504;2022-07-23T12:25:28;28.40;46.30
22562;DHT22;11447;50.562;8.504;2022-07-23T12:28:09;28.40;46.60
22562;DHT22;11447;50.562;8.504;2022-07-23T12:30:41;28.40;46.10
22562;DHT22;11447;50.562;8.504;2022-07-23T12:33:13;28.50;46.00
22562;DHT22;11447;50.562;8.504;2022-07-23T12:35:45;28.50;46.20
22562;DHT22;11447;50.562;8.504;2022-07-23T12:38:17;28.60;45.60
22562;DHT22;11447;50.562;8.504;2022-07-23T12:40:57;28.60;44.90
22562;DHT22;11447;50.562;8.504;2022-07-23T12:43:31;28.50;45.50
22562;DHT22;11447;50.562;8.504;2022-07-23T12:46:11;28.50;45.80
22562;DHT22;11447;50.562;8.504;2022-07-23T12:48:51;28.60;45.30
22562;DHT22;11447;50.562;8.504;2022-07-23T12:56:33;28.40;44.70
22562;DHT22;11447;50.562;8.504;2022-07-23T12:59:11;28.40;44.60
22562;DHT22;11447;50.562;8.504;2022-07-23T13:01:44;28.50;44.60
22562;DHT22;11447;50.562;8.504;2022-07-23T13:04:23;28.60;44.60
22562;DHT22;11447;50.562;8.504;2022-07-23T13:06:52;28.70;44.80
22562;DHT22;11447;50.562;8.504;2022-07-23T13:09:21;28.70;44.60
22562;DHT22;11447;50.562;8.504;2022-07-23T13:11:49;28.70;44.50
22562;DHT22;11447;50.562;8.504;2022-07-23T13:14:23;28.80;44.00
22562;DHT22;11447;50.562;8.504;2022-07-23T13:16:55;28.80;43.90
22562;DHT22;11447;50.562;8.504;2022-07-23T13:19:25;28.70;43.50
22562;DHT22;11447;50.562;8.504;2022-07-23T13:21:53;28.60;43.00
22562;DHT22;11447;50.562;8.504;2022-07-23T13:24:21;28.50;43.20
22562;DHT22;11447;50.562;8.504;2022-07-23T13:26:48;28.40;44.00
22562;DHT22;11447;50.562;8.504;2022-07-23T13:29:17;28.50;43.90
22562;DHT22;11447;50.562;8.504;2022-07-23T13:31:45;28.60;44.50
22562;DHT22;11447;50.562;8.504;2022-07-23T13:34:13;28.70;44.20
22562;DHT22;11447;50.562;8.504;2022-07-23T13:36:40;28.80;44.00
22562;DHT22;11447;50.562;8.504;2022-07-23T13:39:12;28.90;43.90
22562;DHT22;11447;50.562;8.504;2022-07-23T13:41:42;28.90;43.80
22562;DHT22;11447;50.562;8.504;2022-07-23T13:44:15;29.00;43.30
22562;DHT22;11447;50.562;8.504;2022-07-23T13:46:42;29.00;43.50
22562;DHT22;11447;50.562;8.504;2022-07-23T13:49:11;29.00;43.40
22562;DHT22;11447;50.562;8.504;2022-07-23T13:51:44;29.10;43.10
22562;DHT22;11447;50.562;8.504;2022-07-23T13:54:10;29.10;42.40
22562;DHT22;11447;50.562;8.504;2022-07-23T13:56:37;29.00;42.50
22562;DHT22;11447;50.562;8.504;2022-07-23T13:59:06;29.00;42.80
22562;DHT22;11447;50.562;8.504;2022-07-23T14:01:34;29.00;43.10
22562;DHT22;11447;50.562;8.504;2022-07-23T14:04:23;29.00;42.70
22562;DHT22;11447;50.562;8.504;2022-07-23T14:06:52;29.00;42.60
22562;DHT22;11447;50.562;8.504;2022-07-23T14:09:21;29.00;43.10
22562;DHT22;11447;50.562;8.504;2022-07-23T14:11:51;29.00;42.30
22562;DHT22;11447;50.562;8.504;2022-07-23T14:14:18;29.10;43.40
22562;DHT22;11447;50.562;8.504;2022-07-23T14:16:51;29.10;43.00
22562;DHT22;11447;50.562;8.504;2022-07-23T14:19:22;29.20;42.80
22562;DHT22;11447;50.562;8.504;2022-07-23T14:21:52;29.30;42.80
22562;DHT22;11447;50.562;8.504;2022-07-23T14:24:19;29.30;42.30
22562;DHT22;11447;50.562;8.504;2022-07-23T14:26:47;29.30;42.20
22562;DHT22;11447;50.562;8.504;2022-07-23T14:29:14;29.20;42.20
22562;DHT22;11447;50.562;8.504;2022-07-23T14:31:42;29.20;41.70
22562;DHT22;11447;50.562;8.504;2022-07-23T14:34:09;29.20;41.50
22562;DHT22;11447;50.562;8.504;2022-07-23T14:36:38;29.20;41.80
22562;DHT22;11447;50.562;8.504;2022-07-23T14:39:05;29.20;41.50
22562;DHT22;11447;50.562;8.504;2022-07-23T14:41:35;29.20;41.50
22562;DHT22;11447;50.562;8.504;2022-07-23T14:44:02;29.10;41.50
22562;DHT22;11447;50.562;8.504;2022-07-23T14:46:31;29.00;41.90
22562;DHT22;11447;50.562;8.504;2022-07-23T14:49:00;29.00;42.00
22562;DHT22;11447;50.562;8.504;2022-07-23T14:51:31;29.00;41.90
22562;DHT22;11447;50.562;8.504;2022-07-23T14:53:58;29.00;41.60
22562;DHT22;11447;50.562;8.504;2022-07-23T14:56:25;29.00;41.60
22562;DHT22;11447;50.562;8.504;2022-07-23T14:58:54;29.10;41.70
22562;DHT22;11447;50.562;8.504;2022-07-23T15:01:22;29.10;41.40
22562;DHT22;11447;50.562;8.504;2022-07-23T15:03:52;29.00;41.50
22562;DHT22;11447;50.562;8.504;2022-07-23T15:06:25;29.00;41.70
22562;DHT22;11447;50.562;8.504;2022-07-23T15:08:56;29.00;41.40
22562;DHT22;11447;50.562;8.504;2022-07-23T15:11:28;28.90;41.90
22562;DHT22;11447;50.562;8.504;2022-07-23T15:14:03;29.00;42.00
22562;DHT22;11447;50.562;8.504;2022-07-23T15:16:30;29.10;42.20
22562;DHT22;11447;50.562;8.504;2022-07-23T15:18:57;29.10;41.60
22562;DHT22;11447;50.562;8.504;2022-07-23T15:21:23;29.10;41.80
22562;DHT22;11447;50.562;8.504;2022-07-23T15:23:56;29.20;41.80
22562;DHT22;11447;50.562;8.504;2022-07-23T15:26:27;29.20;41.90
22562;DHT22;11447;50.562;8.504;2022-07-23T15:28:54;29.10;41.00
22562;DHT22;11447;50.562;8.504;2022-07-23T15:31:21;29.10;40.80
22562;DHT22;11447;50.562;8.504;2022-07-23T15:33:50;29.00;40.90
22562;DHT22;11447;50.562;8.504;2022-07-23T15:36:19;29.00;40.70
22562;DHT22;11447;50.562;8.504;2022-07-23T15:38:46;28.90;41.20
22562;DHT22;11447;50.562;8.504;2022-07-23T15:41:14;28.90;41.50
22562;DHT22;11447;50.562;8.504;2022-07-23T15:43:43;28.90;41.30
22562;DHT22;11447;50.562;8.504;2022-07-23T15:46:13;28.90;41.50
22562;DHT22;11447;50.562;8.504;2022-07-23T15:48:42;28.90;41.40
22562;DHT22;11447;50.562;8.504;2022-07-23T15:51:09;28.90;41.50
22562;DHT22;11447;50.562;8.504;2022-07-23T15:53:38;28.90;41.60
22562;DHT22;11447;50.562;8.504;2022-07-23T15:56:06;28.90;41.70
22562;DHT22;11447;50.562;8.504;2022-07-23T15:58:40;28.80;41.60
22562;DHT22;11447;50.562;8.504;2022-07-23T16:01:09;28.80;41.50
22562;DHT22;11447;50.562;8.504;2022-07-23T16:03:37;28.80;41.30
22562;DHT22;11447;50.562;8.504;2022-07-23T16:06:05;28.90;41.30
22562;DHT22;11447;50.562;8.504;2022-07-23T16:08:43;28.90;40.50
22562;DHT22;11447;50.562;8.504;2022-07-23T16:11:13;28.80;40.00
22562;DHT22;11447;50.562;8.504;2022-07-23T16:13:41;28.80;40.00
22562;DHT22;11447;50.562;8.504;2022-07-23T16:16:11;28.80;40.40
22562;DHT22;11447;50.562;8.504;2022-07-23T16:18:38;28.80;40.80
22562;DHT22;11447;50.562;8.504;2022-07-23T16:21:05;28.70;40.90
22562;DHT22;11447;50.562;8.504;2022-07-23T16:23:41;28.80;41.00
22562;DHT22;11447;50.562;8.504;2022-07-23T16:26:07;28.80;41.10
22562;DHT22;11447;50.562;8.504;2022-07-23T16:28:37;28.70;41.10
22562;DHT22;11447;50.562;8.504;2022-07-23T16:31:04;28.60;41.50
22562;DHT22;11447;50.562;8.504;2022-07-23T16:33:33;28.70;41.50
22562;DHT22;11447;50.562;8.504;2022-07-23T16:36:02;28.70;41.50
22562;DHT22;11447;50.562;8.504;2022-07-23T16:38:36;28.60;41.50
22562;DHT22;11447;50.562;8.504;2022-07-23T16:41:06;28.60;41.40
22562;DHT22;11447;50.562;8.504;2022-07-23T16:43:36;28.60;41.60